Elim, Alaska
Current Conditions -  °F | °C
As of 7:58 AM on Friday 28 Nov 2014 (Local Time) from PFEL Reporting Station
Overcast Overcast  
Wind Chill: 17°   Ceiling: 1500
Heat Index: 23°   Visibility: 10mi
Dew Point: 20°   Wind: 5mph
Humidity: 88%   Direction: 330°NNW
Pressure: 30.05"   Gusts: NA
Location:  64.62°N, 162.27°W
Report Text: PFEL 281658Z AUTO 33004KT 10SM OVC015 M05/M07 A3005 RMK AO2 SLP179 T10501067 FZRANO
Loading
Personal Weather Stations






























Interactive Weather Map New forecast layout! Learn more

10-Day Weather Forecast

Advertisements
Track Severe Weather on mobile